Time;durP1;ratioP1;P1;durP2;ratioP2;P2;SDS_P1;SDS_P2;PMS_P1;PMS_P2;Temp;Humidity;BMP_temperature;BMP_pressure;BME280_temperature;BME280_humidity;BME280_pressure;Samples;Min_cycle;Max_cycle;Signal;HPM_P1;HPM_P2
2022/06/21 00:00:07;;;;;;;3.23;2.33;;;22.60;62.70;;;;;;4956898;29;21076;-73
2022/06/21 00:02:36;;;;;;;2.33;1.60;;;22.60;62.80;;;;;;4955777;28;20497;-73
2022/06/21 00:05:11;;;;;;;1.93;1.60;;;22.60;62.80;;;;;;4956796;29;20453;-73
2022/06/21 00:07:37;;;;;;;2.53;2.33;;;22.50;62.80;;;;;;4956239;29;20488;-73
2022/06/21 00:10:12;;;;;;;3.60;2.53;;;22.50;62.90;;;;;;4956717;29;20462;-73
2022/06/21 00:12:38;;;;;;;4.00;1.93;;;22.50;62.80;;;;;;4939263;29;20442;-73
2022/06/21 00:15:05;;;;;;;4.17;2.50;;;22.50;62.90;;;;;;4956257;29;20426;-73
2022/06/21 00:17:33;;;;;;;2.13;1.93;;;22.50;62.90;;;;;;4941318;29;20805;-73
2022/06/21 00:19:59;;;;;;;2.40;2.20;;;22.50;62.90;;;;;;4935307;29;20461;-73
2022/06/21 00:22:28;;;;;;;3.23;2.30;;;22.50;62.90;;;;;;4938674;29;20451;-73
2022/06/21 00:24:54;;;;;;;4.10;2.60;;;22.40;62.80;;;;;;4955854;29;20965;-73
2022/06/21 00:27:24;;;;;;;2.40;2.20;;;22.40;62.90;;;;;;4938600;29;20447;-73
2022/06/21 00:29:50;;;;;;;2.47;2.27;;;22.40;63.70;;;;;;4938636;29;20429;-73
2022/06/21 00:32:18;;;;;;;3.50;2.10;;;22.40;62.90;;;;;;4920684;29;21011;-73
2022/06/21 00:34:47;;;;;;;2.37;2.17;;;22.40;63.00;;;;;;4939098;29;20479;-73
2022/06/21 00:37:23;;;;;;;2.50;2.30;;;22.30;62.90;;;;;;4938369;29;20972;-73
2022/06/21 00:39:51;;;;;;;2.87;1.90;;;22.30;62.90;;;;;;4938807;29;20453;-73
2022/06/21 00:42:26;;;;;;;3.10;2.70;;;22.30;62.90;;;;;;4907105;29;20470;-73
2022/06/21 00:45:10;;;;;;;3.37;2.20;;;22.30;62.90;;;;;;4938960;29;20825;-73
2022/06/21 00:47:49;;;;;;;4.17;2.00;;;22.30;63.00;;;;;;4955949;29;20455;-72
2022/06/21 00:50:19;;;;;;;2.17;1.93;;;22.30;63.00;;;;;;4938872;29;20505;-73
2022/06/21 00:53:06;;;;;;;3.40;1.80;;;22.20;63.00;;;;;;4938635;29;21003;-73
2022/06/21 00:55:44;;;;;;;2.10;1.90;;;22.20;63.00;;;;;;4922704;29;20476;-73
2022/06/21 00:58:15;;;;;;;2.17;1.80;;;22.20;63.10;;;;;;4922765;29;20449;-73
2022/06/21 01:01:03;;;;;;;2.90;2.03;;;22.20;63.10;;;;;;4922726;29;20447;-73
2022/06/21 01:03:42;;;;;;;2.80;2.20;;;22.20;63.20;;;;;;4955851;29;20885;-73
2022/06/21 01:06:20;;;;;;;3.00;2.10;;;22.10;63.00;;;;;;4925400;29;20458;-73
2022/06/21 01:08:53;;;;;;;2.40;1.93;;;22.10;63.10;;;;;;4938145;29;20450;-73
2022/06/21 01:11:25;;;;;;;4.43;1.97;;;22.10;63.10;;;;;;4955375;28;20442;-73
2022/06/21 01:13:57;;;;;;;3.00;1.97;;;22.10;63.20;;;;;;4922400;29;20408;-73
2022/06/21 01:16:26;;;;;;;3.20;1.80;;;22.10;63.10;;;;;;4955578;29;20418;-73
2022/06/21 01:18:53;;;;;;;2.63;1.63;;;22.00;63.00;;;;;;4938433;29;20438;-73
2022/06/21 01:21:22;;;;;;;2.30;1.83;;;22.10;63.20;;;;;;4954710;29;20454;-73
2022/06/21 01:23:51;;;;;;;2.60;1.70;;;22.10;63.30;;;;;;4938180;29;20434;-73
2022/06/21 01:26:55;;;;;;;2.43;2.23;;;22.10;63.20;;;;;;4955142;29;20470;-72
2022/06/21 01:29:25;;;;;;;1.90;1.80;;;22.00;63.10;;;;;;4937823;29;20445;-72
2022/06/21 01:31:55;;;;;;;2.77;2.10;;;22.00;63.20;;;;;;4955077;28;20473;-73
2022/06/21 01:34:25;;;;;;;3.93;2.60;;;22.00;63.20;;;;;;4954800;29;20490;-73
2022/06/21 01:37:07;;;;;;;2.60;2.10;;;21.90;63.10;;;;;;4938356;29;20485;-73
2022/06/21 01:39:50;;;;;;;2.57;2.20;;;22.00;63.20;;;;;;4937486;29;20434;-73
2022/06/21 01:42:27;;;;;;;2.23;2.00;;;21.90;63.10;;;;;;4937069;29;20446;-73
2022/06/21 01:44:57;;;;;;;1.90;1.80;;;21.90;63.10;;;;;;4937151;29;20937;-73
2022/06/21 01:47:29;;;;;;;2.20;2.00;;;21.90;63.20;;;;;;4937285;29;20969;-73
2022/06/21 01:50:04;;;;;;;1.83;1.73;;;21.90;64.00;;;;;;4937397;29;20514;-73
2022/06/21 01:52:34;;;;;;;2.37;2.17;;;21.90;63.20;;;;;;4954459;28;20476;-73
2022/06/21 01:55:16;;;;;;;2.73;1.90;;;21.80;63.90;;;;;;4921462;29;20477;-73
2022/06/21 01:57:42;;;;;;;4.37;1.80;;;21.80;63.10;;;;;;4921384;29;20545;-73
2022/06/21 02:00:14;;;;;;;2.63;1.80;;;21.80;63.10;;;;;;4954825;29;20786;-73
2022/06/21 02:02:49;;;;;;;3.00;2.00;;;21.80;63.10;;;;;;4917456;29;20896;-73
2022/06/21 02:05:22;;;;;;;4.30;1.80;;;21.80;63.10;;;;;;4903190;29;20487;-73
2022/06/21 02:07:55;;;;;;;2.60;1.60;;;21.80;63.10;;;;;;4937299;29;20459;-73
2022/06/21 02:10:36;;;;;;;2.30;1.90;;;21.70;62.90;;;;;;4937186;29;20430;-73
2022/06/21 02:13:41;;;;;;;2.70;2.13;;;21.70;63.00;;;;;;4937308;29;20600;-73
2022/06/21 02:16:15;;;;;;;2.30;1.70;;;21.70;63.00;;;;;;4940740;28;20932;-73
2022/06/21 02:18:48;;;;;;;2.73;2.00;;;21.70;63.00;;;;;;4902523;29;20423;-73
2022/06/21 02:21:38;;;;;;;3.00;2.07;;;21.60;62.90;;;;;;4926618;29;20438;-73
2022/06/21 02:24:08;;;;;;;2.17;1.70;;;21.60;63.00;;;;;;4954415;29;21089;-73
2022/06/21 02:26:35;;;;;;;2.73;2.00;;;21.60;62.90;;;;;;4936151;29;20558;-73
2022/06/21 02:29:01;;;;;;;2.50;1.80;;;21.60;63.00;;;;;;4954249;29;20419;-73
2022/06/21 02:31:28;;;;;;;3.30;1.90;;;21.60;63.00;;;;;;4954033;28;20470;-73
2022/06/21 02:34:00;;;;;;;2.40;2.20;;;21.60;63.00;;;;;;4937212;29;20413;-73
2022/06/21 02:36:37;;;;;;;2.20;1.90;;;21.50;62.80;;;;;;4936526;29;20441;-73
2022/06/21 02:39:06;;;;;;;2.00;1.70;;;21.50;62.90;;;;;;4953782;29;20446;-73
2022/06/21 02:41:41;;;;;;;2.17;1.70;;;21.50;62.90;;;;;;4936438;29;20450;-73
2022/06/21 02:44:27;;;;;;;3.07;2.40;;;21.50;62.90;;;;;;4921142;29;20478;-73
2022/06/21 02:47:01;;;;;;;1.90;1.70;;;21.50;62.90;;;;;;4939223;29;20472;-73
2022/06/21 02:49:53;;;;;;;2.30;1.90;;;21.50;63.00;;;;;;4936586;29;20445;-73
2022/06/21 02:52:30;;;;;;;1.90;1.70;;;21.40;62.80;;;;;;4936662;29;20526;-73
2022/06/21 02:55:19;;;;;;;2.17;1.90;;;21.40;62.80;;;;;;4953777;29;20522;-73
2022/06/21 02:57:56;;;;;;;1.90;1.80;;;21.40;62.90;;;;;;4952711;29;20520;-73
2022/06/21 03:00:24;;;;;;;2.80;2.07;;;21.40;62.90;;;;;;4920735;29;20931;-72
2022/06/21 03:02:52;;;;;;;2.97;2.03;;;21.30;62.80;;;;;;4936030;29;20467;-73
2022/06/21 03:05:22;;;;;;;2.10;1.90;;;21.30;62.80;;;;;;4920641;29;20469;-72
2022/06/21 03:08:02;;;;;;;3.07;2.00;;;21.30;62.80;;;;;;4920530;29;20496;-73
2022/06/21 03:10:35;;;;;;;3.30;2.20;;;21.30;62.90;;;;;;4935398;29;20482;-73
2022/06/21 03:13:25;;;;;;;2.57;2.37;;;21.30;62.90;;;;;;4936326;29;20445;-72
2022/06/21 03:16:03;;;;;;;2.50;1.70;;;21.30;63.00;;;;;;4936735;29;20748;-73
2022/06/21 03:18:41;;;;;;;2.30;2.10;;;21.30;63.00;;;;;;4952642;29;21014;-73
2022/06/21 03:21:12;;;;;;;2.37;2.17;;;21.20;62.90;;;;;;4933518;29;20434;-72
2022/06/21 03:23:41;;;;;;;2.40;2.20;;;21.20;63.00;;;;;;4919461;29;20420;-73
2022/06/21 03:26:09;;;;;;;2.83;1.83;;;21.20;63.10;;;;;;4936269;29;20978;-73
2022/06/21 03:28:47;;;;;;;2.23;2.03;;;21.20;63.10;;;;;;4937353;29;20440;-72
2022/06/21 03:31:32;;;;;;;4.03;2.53;;;21.20;63.10;;;;;;4908429;29;20526;-72
2022/06/21 03:34:05;;;;;;;2.80;1.80;;;21.20;63.20;;;;;;4924086;29;20430;-73
2022/06/21 03:36:32;;;;;;;2.53;2.13;;;21.20;63.20;;;;;;4947308;29;20826;-72
2022/06/21 03:39:05;;;;;;;2.57;2.17;;;21.10;63.10;;;;;;4939731;29;20513;-73
2022/06/21 03:41:44;;;;;;;3.87;1.80;;;21.10;63.20;;;;;;4924108;29;20458;-73
2022/06/21 03:44:22;;;;;;;1.87;1.73;;;21.10;63.30;;;;;;4939326;29;20528;-73
2022/06/21 03:46:57;;;;;;;2.47;2.17;;;21.10;63.20;;;;;;4921737;29;20541;-72
2022/06/21 03:49:52;;;;;;;2.03;1.67;;;21.10;63.30;;;;;;4924305;29;20939;-73
2022/06/21 03:52:45;;;;;;;2.30;2.10;;;21.00;63.40;;;;;;4924108;29;20452;-72
2022/06/21 03:55:22;;;;;;;4.13;1.80;;;21.00;63.30;;;;;;4924510;29;20456;-72
2022/06/21 03:58:02;;;;;;;2.97;2.30;;;21.00;63.30;;;;;;4940008;29;21030;-72
2022/06/21 04:00:35;;;;;;;2.10;1.97;;;21.00;63.40;;;;;;4956297;29;20473;-73
2022/06/21 04:03:18;;;;;;;2.33;2.13;;;21.00;63.40;;;;;;4956501;28;20461;-73
2022/06/21 04:05:59;;;;;;;4.60;1.83;;;21.00;63.50;;;;;;4939390;29;20457;-73
2022/06/21 04:08:51;;;;;;;2.27;2.07;;;20.90;63.40;;;;;;4923647;29;20423;-73
2022/06/21 04:11:28;;;;;;;2.90;2.20;;;20.90;63.40;;;;;;4956539;29;20488;-73
2022/06/21 04:14:15;;;;;;;3.10;1.90;;;20.90;63.50;;;;;;4938217;29;20439;-73
2022/06/21 04:17:20;;;;;;;3.03;2.70;;;20.90;63.60;;;;;;4955944;29;21154;-73
2022/06/21 04:19:52;;;;;;;2.20;2.00;;;20.90;63.60;;;;;;4956715;29;20790;-74
2022/06/21 04:22:21;;;;;;;3.30;2.00;;;20.90;63.70;;;;;;4939499;29;20861;-74
2022/06/21 04:24:54;;;;;;;2.37;2.10;;;20.80;63.60;;;;;;4955571;29;20555;-75
2022/06/21 04:27:51;;;;;;;3.27;2.00;;;20.80;63.60;;;;;;4923272;29;20473;-75
2022/06/21 04:30:26;;;;;;;2.03;1.60;;;20.80;63.70;;;;;;4956284;29;20889;-74
2022/06/21 04:33:16;;;;;;;3.13;2.20;;;20.80;63.70;;;;;;4939063;29;20440;-74
2022/06/21 04:35:50;;;;;;;2.00;1.80;;;20.80;63.80;;;;;;4956164;29;20433;-75
2022/06/21 04:38:35;;;;;;;2.50;1.73;;;20.80;63.90;;;;;;4938780;29;20441;-72
2022/06/21 04:41:30;;;;;;;3.30;2.27;;;20.80;64.00;;;;;;4938792;28;20825;-72
2022/06/21 04:44:07;;;;;;;2.40;2.20;;;20.70;63.80;;;;;;4938632;29;20960;-72
2022/06/21 04:46:58;;;;;;;3.97;2.40;;;20.70;63.90;;;;;;4922339;29;20917;-73
2022/06/21 04:49:53;;;;;;;3.17;2.60;;;20.70;64.00;;;;;;4922970;29;20919;-72
2022/06/21 04:52:29;;;;;;;2.33;2.03;;;20.70;64.00;;;;;;4906822;29;20998;-72
2022/06/21 04:54:56;;;;;;;2.67;2.47;;;20.70;64.10;;;;;;4906988;29;20433;-72
2022/06/21 04:57:31;;;;;;;3.10;2.17;;;20.70;64.20;;;;;;4955500;29;20487;-70
2022/06/21 05:00:21;;;;;;;5.23;2.53;;;20.60;64.20;;;;;;4937951;29;20512;-70
2022/06/21 05:02:58;;;;;;;6.33;2.50;;;20.60;64.20;;;;;;4953897;29;20495;-73
2022/06/21 05:05:35;;;;;;;4.97;2.20;;;20.60;64.70;;;;;;4954531;29;20424;-72
2022/06/21 05:08:19;;;;;;;3.03;2.00;;;20.60;64.90;;;;;;4937572;29;20518;-72
2022/06/21 05:10:48;;;;;;;4.97;2.47;;;20.60;65.00;;;;;;4937305;29;20430;-73
2022/06/21 05:13:26;;;;;;;2.47;2.27;;;20.60;64.90;;;;;;4954434;29;20417;-73
2022/06/21 05:15:59;;;;;;;2.10;1.90;;;20.60;65.00;;;;;;4921775;29;20833;-72
2022/06/21 05:18:33;;;;;;;2.63;2.23;;;20.60;65.10;;;;;;4917989;29;20502;-72
2022/06/21 05:21:08;;;;;;;7.10;2.43;;;20.60;66.00;;;;;;4918150;29;20442;-73
2022/06/21 05:23:36;;;;;;;3.47;2.30;;;20.60;65.10;;;;;;4902467;29;20489;-73
2022/06/21 05:26:12;;;;;;;2.60;2.40;;;20.60;65.10;;;;;;4936373;29;20819;-70
2022/06/21 05:28:53;;;;;;;5.63;2.20;;;20.50;65.00;;;;;;4919575;29;20665;-70
2022/06/21 05:31:26;;;;;;;2.20;1.80;;;20.50;65.00;;;;;;4936102;29;20607;-70
2022/06/21 05:34:08;;;;;;;2.63;2.00;;;20.50;65.00;;;;;;4919433;29;20485;-70
2022/06/21 05:36:51;;;;;;;2.93;2.30;;;20.50;65.00;;;;;;4904123;29;20558;-70
2022/06/21 05:39:23;;;;;;;3.50;2.10;;;20.50;65.10;;;;;;4936397;29;20461;-70
2022/06/21 05:41:55;;;;;;;2.00;1.80;;;20.50;65.10;;;;;;4919275;29;20458;-70
2022/06/21 05:44:34;;;;;;;3.93;2.07;;;20.50;65.10;;;;;;4936201;29;20458;-70
2022/06/21 05:47:17;;;;;;;2.10;1.90;;;20.50;65.20;;;;;;4936183;29;20457;-70
2022/06/21 05:49:50;;;;;;;3.33;2.00;;;20.50;65.20;;;;;;4919694;29;20806;-70
2022/06/21 05:52:30;;;;;;;1.73;1.63;;;20.50;65.20;;;;;;4902881;29;20450;-67
2022/06/21 05:55:02;;;;;;;2.40;1.90;;;20.50;65.30;;;;;;4936105;29;20522;-69
2022/06/21 05:57:44;;;;;;;3.70;2.33;;;20.50;65.30;;;;;;4881304;29;1131777;-68
2022/06/21 06:00:24;;;;;;;2.83;1.80;;;20.40;65.30;;;;;;4919796;29;20638;-69
2022/06/21 06:03:04;;;;;;;4.03;2.47;;;20.40;65.30;;;;;;4936749;29;20873;-70
2022/06/21 06:05:34;;;;;;;2.07;1.87;;;20.40;65.40;;;;;;4904253;29;20442;-69
2022/06/21 06:08:23;;;;;;;2.40;1.83;;;20.50;65.50;;;;;;4919733;29;20484;-69
2022/06/21 06:10:55;;;;;;;3.10;2.20;;;20.40;65.50;;;;;;4919814;29;20419;-69
2022/06/21 06:13:38;;;;;;;2.23;2.03;;;20.40;65.60;;;;;;4936517;29;20442;-69
2022/06/21 06:16:34;;;;;;;3.27;2.10;;;20.40;65.60;;;;;;4919634;29;20434;-69
2022/06/21 06:19:05;;;;;;;5.93;2.63;;;20.40;65.70;;;;;;4917573;29;20531;-69
2022/06/21 06:21:54;;;;;;;5.17;2.00;;;20.40;66.00;;;;;;4936362;29;20447;-69
2022/06/21 06:24:33;;;;;;;4.80;2.40;;;20.40;66.50;;;;;;4919538;29;20442;-69
2022/06/21 06:27:02;;;;;;;3.90;2.23;;;20.40;67.10;;;;;;4919512;29;20448;-69
2022/06/21 06:29:38;;;;;;;3.60;2.47;;;20.40;67.60;;;;;;4919532;29;20484;-69
2022/06/21 06:32:06;;;;;;;3.53;1.97;;;20.40;67.60;;;;;;4903733;29;20457;-69
2022/06/21 06:34:37;;;;;;;3.83;1.97;;;20.40;67.40;;;;;;4903742;29;20426;-69
2022/06/21 06:37:11;;;;;;;4.53;2.10;;;20.30;67.20;;;;;;4936267;29;20410;-69
2022/06/21 06:39:37;;;;;;;5.50;2.00;;;20.40;67.20;;;;;;4919210;29;20501;-69
2022/06/21 06:42:20;;;;;;;7.60;2.67;;;20.40;67.70;;;;;;4919289;29;20465;-69
2022/06/21 06:44:55;;;;;;;3.57;2.33;;;20.40;68.60;;;;;;4919403;29;20430;-68
2022/06/21 06:47:41;;;;;;;5.90;2.80;;;20.30;68.80;;;;;;4935609;29;20475;-69
2022/06/21 06:50:17;;;;;;;4.37;2.20;;;20.30;69.10;;;;;;4935676;29;20431;-69
2022/06/21 06:52:45;;;;;;;4.70;2.47;;;20.30;69.40;;;;;;4935788;29;20454;-69
2022/06/21 06:55:53;;;;;;;3.13;2.03;;;20.30;69.30;;;;;;4935992;29;20916;-69
2022/06/21 06:58:36;;;;;;;3.30;1.80;;;20.30;69.10;;;;;;4898976;29;20498;-69
2022/06/21 07:01:08;;;;;;;4.00;2.43;;;20.30;68.90;;;;;;4919052;29;20532;-69
2022/06/21 07:03:41;;;;;;;3.57;2.17;;;20.30;68.70;;;;;;4935110;29;20505;-69
2022/06/21 07:06:40;;;;;;;3.57;1.93;;;20.30;68.40;;;;;;4934731;29;20797;-69
2022/06/21 07:09:26;;;;;;;6.53;2.40;;;20.40;68.30;;;;;;4883832;29;20859;-69
2022/06/21 07:12:19;;;;;;;4.03;2.27;;;20.40;68.20;;;;;;4918912;29;20456;-69
2022/06/21 07:14:50;;;;;;;5.00;2.67;;;20.40;68.00;;;;;;4919056;29;20511;-69
2022/06/21 07:17:46;;;;;;;6.50;2.70;;;20.40;67.90;;;;;;4903380;29;20424;-69
2022/06/21 07:20:36;;;;;;;3.10;2.50;;;20.40;67.90;;;;;;4919230;29;20871;-69
2022/06/21 07:23:11;;;;;;;3.23;2.27;;;20.40;67.70;;;;;;4918917;29;20467;-69
2022/06/21 07:25:52;;;;;;;3.50;2.20;;;20.40;67.60;;;;;;4918707;29;20434;-69
2022/06/21 07:28:28;;;;;;;3.10;2.67;;;20.40;67.50;;;;;;4918927;29;20450;-69
2022/06/21 07:30:58;;;;;;;3.13;2.33;;;20.50;67.50;;;;;;4918792;29;20410;-69
2022/06/21 07:33:34;;;;;;;6.40;2.30;;;20.50;68.30;;;;;;4918838;29;20538;-69
2022/06/21 07:36:08;;;;;;;5.90;2.23;;;20.50;67.40;;;;;;4935880;29;20778;-69
2022/06/21 07:38:46;;;;;;;4.27;2.23;;;20.50;67.30;;;;;;4918695;29;20399;-69
2022/06/21 07:41:21;;;;;;;2.37;1.90;;;20.50;67.20;;;;;;4902992;29;20447;-69
2022/06/21 07:43:50;;;;;;;4.27;2.17;;;20.50;67.10;;;;;;4902782;29;20835;-69
2022/06/21 07:46:23;;;;;;;3.27;2.00;;;20.60;67.20;;;;;;4918691;29;20467;-69
2022/06/21 07:48:59;;;;;;;2.87;2.10;;;20.60;67.10;;;;;;4935559;29;20439;-70
2022/06/21 07:51:30;;;;;;;2.40;1.90;;;20.60;67.10;;;;;;4950706;28;20477;-69
2022/06/21 07:54:03;;;;;;;2.97;2.30;;;20.60;67.00;;;;;;4921847;29;20427;-69
2022/06/21 07:56:52;;;;;;;4.40;2.80;;;20.60;67.00;;;;;;4921536;29;20485;-69
2022/06/21 07:59:36;;;;;;;2.70;1.93;;;20.60;66.90;;;;;;4937577;29;20434;-69
2022/06/21 08:08:14;;;;;;;5.23;2.33;;;20.70;66.80;;;;;;4954743;29;20433;-69
2022/06/21 08:10:46;;;;;;;1.77;1.60;;;20.70;66.80;;;;;;4921794;29;20430;-69
2022/06/21 08:13:12;;;;;;;2.73;1.57;;;20.70;66.80;;;;;;4937395;29;20438;-69
2022/06/21 08:15:47;;;;;;;3.10;2.27;;;20.70;66.70;;;;;;4957003;28;20786;-69
2022/06/21 08:18:21;;;;;;;6.40;2.23;;;20.70;66.60;;;;;;4957764;29;20421;-69
2022/06/21 08:20:57;;;;;;;2.77;2.20;;;20.80;66.70;;;;;;4957782;29;20407;-69
2022/06/21 08:23:29;;;;;;;3.00;2.03;;;20.80;66.70;;;;;;4924681;29;20432;-69
2022/06/21 08:26:10;;;;;;;5.47;2.10;;;20.80;66.60;;;;;;4957746;29;20433;-69
2022/06/21 08:28:41;;;;;;;2.73;2.20;;;20.90;66.70;;;;;;4924849;29;20902;-69
2022/06/21 08:31:27;;;;;;;2.13;1.77;;;20.90;66.60;;;;;;4924734;28;20397;-70
2022/06/21 08:34:00;;;;;;;4.13;1.83;;;20.90;66.60;;;;;;4940264;29;20966;-69
2022/06/21 08:36:35;;;;;;;3.17;2.10;;;20.90;66.40;;;;;;4957660;29;20414;-69
2022/06/21 08:39:08;;;;;;;3.30;2.07;;;21.00;66.50;;;;;;4923098;29;20495;-69
2022/06/21 08:41:55;;;;;;;2.80;2.20;;;21.00;66.30;;;;;;4938901;29;20435;-69
2022/06/21 08:44:49;;;;;;;2.50;1.80;;;21.00;66.20;;;;;;4940321;29;20438;-69
2022/06/21 08:47:44;;;;;;;3.40;2.40;;;21.00;66.10;;;;;;4924305;29;20473;-69
2022/06/21 08:50:32;;;;;;;3.20;1.90;;;21.10;66.10;;;;;;4918764;29;20500;-69
2022/06/21 08:53:36;;;;;;;2.50;2.30;;;21.10;66.00;;;;;;4957251;28;20444;-69
2022/06/21 08:56:30;;;;;;;3.30;2.00;;;21.10;65.90;;;;;;4924233;29;20450;-69
2022/06/21 08:59:28;;;;;;;2.03;1.83;;;21.20;65.90;;;;;;4957332;29;20411;-69
2022/06/21 09:01:59;;;;;;;2.67;2.20;;;21.20;65.80;;;;;;4956968;28;20425;-69
2022/06/21 09:04:47;;;;;;;2.73;1.90;;;21.20;65.80;;;;;;4939977;29;20453;-69
2022/06/21 09:07:39;;;;;;;1.87;1.63;;;21.20;66.40;;;;;;4939753;29;20886;-69
2022/06/21 09:10:28;;;;;;;3.80;2.50;;;21.30;65.60;;;;;;4939815;29;20547;-69
2022/06/21 09:13:13;;;;;;;2.23;2.00;;;21.30;65.50;;;;;;4939829;29;20979;-69
2022/06/21 09:16:03;;;;;;;2.83;2.30;;;21.30;65.50;;;;;;4924080;29;20959;-69
2022/06/21 09:18:51;;;;;;;2.50;2.23;;;21.40;65.50;;;;;;4939803;29;20458;-69
2022/06/21 09:21:44;;;;;;;3.63;2.43;;;21.40;65.40;;;;;;4939742;29;20453;-69
2022/06/21 09:24:41;;;;;;;3.50;2.20;;;21.40;65.30;;;;;;4939732;29;20501;-69
2022/06/21 09:27:25;;;;;;;2.07;1.97;;;21.50;65.40;;;;;;4914815;29;20984;-69
2022/06/21 09:30:20;;;;;;;3.77;2.30;;;21.50;65.30;;;;;;4956714;29;20402;-69
2022/06/21 09:33:01;;;;;;;2.20;2.00;;;21.50;65.30;;;;;;4939469;29;20462;-69
2022/06/21 09:35:43;;;;;;;3.30;1.90;;;21.60;65.30;;;;;;4907946;29;20526;-69
2022/06/21 09:38:26;;;;;;;3.03;1.90;;;21.60;65.30;;;;;;4923559;29;20494;-69
2022/06/21 09:41:05;;;;;;;2.57;2.10;;;21.60;65.30;;;;;;4939383;28;20427;-69
2022/06/21 09:44:00;;;;;;;2.63;1.90;;;21.60;65.30;;;;;;4923947;29;20864;-69
2022/06/21 09:46:47;;;;;;;2.17;1.97;;;21.70;65.30;;;;;;4939130;29;20473;-69
2022/06/21 09:49:40;;;;;;;4.90;2.37;;;21.70;65.30;;;;;;4939138;29;20461;-69
2022/06/21 09:52:35;;;;;;;2.73;2.40;;;21.70;65.30;;;;;;4938340;29;20446;-70
2022/06/21 09:55:04;;;;;;;2.67;2.00;;;21.70;65.30;;;;;;4923255;29;20538;-69
2022/06/21 09:57:48;;;;;;;2.80;2.40;;;21.80;65.30;;;;;;4955971;29;20442;-69
2022/06/21 10:00:23;;;;;;;2.63;2.20;;;21.80;65.30;;;;;;4923112;29;20430;-68
2022/06/21 10:02:56;;;;;;;3.77;2.50;;;21.80;65.30;;;;;;4923109;29;20473;-69
2022/06/21 10:05:33;;;;;;;2.43;2.23;;;21.90;65.30;;;;;;4956050;29;20457;-68
2022/06/21 10:08:27;;;;;;;2.90;2.30;;;21.90;65.30;;;;;;4922834;29;20462;-69
2022/06/21 10:11:14;;;;;;;4.20;2.30;;;21.90;66.00;;;;;;4922813;29;20414;-69
2022/06/21 10:14:19;;;;;;;2.47;2.27;;;22.00;65.40;;;;;;4922955;29;20457;-69
2022/06/21 10:17:25;;;;;;;4.43;2.70;;;22.00;65.30;;;;;;4938611;29;20775;-69
2022/06/21 10:19:51;;;;;;;5.43;2.10;;;22.00;65.10;;;;;;4955735;29;20951;-69
2022/06/21 10:22:39;;;;;;;3.73;2.17;;;22.10;65.10;;;;;;4938634;29;20475;-67
2022/06/21 10:25:06;;;;;;;2.90;2.20;;;22.10;65.10;;;;;;4938410;29;20285;-68
2022/06/21 10:27:42;;;;;;;2.90;2.33;;;22.10;64.90;;;;;;4938383;29;20442;-68
2022/06/21 10:30:17;;;;;;;51.73;4.93;;;22.10;64.90;;;;;;4922728;29;20907;-67
2022/06/21 10:33:02;;;;;;;15.70;3.17;;;22.20;64.90;;;;;;4955517;29;20435;-68
2022/06/21 10:35:40;;;;;;;13.40;3.07;;;22.20;64.60;;;;;;4938243;29;20905;-68
2022/06/21 10:38:25;;;;;;;5.70;2.90;;;22.30;64.70;;;;;;4938206;29;20935;-68
2022/06/21 10:41:00;;;;;;;7.57;2.20;;;22.30;64.60;;;;;;4938241;29;20399;-67
2022/06/21 10:43:47;;;;;;;6.63;2.37;;;22.40;64.40;;;;;;4938294;29;20919;-68
2022/06/21 10:46:49;;;;;;;8.77;2.80;;;22.40;64.50;;;;;;4955281;29;21026;-68
2022/06/21 10:49:45;;;;;;;9.70;2.47;;;22.40;64.50;;;;;;4936115;29;20436;-67
2022/06/21 10:52:20;;;;;;;15.00;3.47;;;22.40;64.50;;;;;;4938039;29;20431;-68
2022/06/21 10:55:23;;;;;;;10.10;3.10;;;22.50;64.50;;;;;;4955199;29;20398;-68
2022/06/21 10:58:10;;;;;;;13.50;3.90;;;22.50;64.30;;;;;;4938159;29;20447;-67
2022/06/21 11:01:17;;;;;;;7.30;3.57;;;22.60;64.40;;;;;;4938133;29;20461;-67
2022/06/21 11:04:06;;;;;;;5.83;2.80;;;22.60;64.40;;;;;;4955112;29;20935;-68
2022/06/21 11:06:51;;;;;;;6.10;2.93;;;22.60;64.30;;;;;;4954984;29;20956;-67
2022/06/21 11:09:27;;;;;;;6.80;2.73;;;22.60;64.20;;;;;;4955051;29;20411;-68
2022/06/21 11:15:37;;;;;;;3.73;2.70;;;22.70;64.20;;;;;;4917032;29;20935;-68
2022/06/21 11:18:22;;;;;;;3.30;2.40;;;22.70;64.20;;;;;;4937876;29;20879;-68
2022/06/21 11:21:02;;;;;;;6.90;2.53;;;22.80;64.30;;;;;;4954979;29;20474;-68
2022/06/21 11:23:34;;;;;;;4.80;2.20;;;22.80;64.20;;;;;;4937908;29;20459;-68
2022/06/21 11:26:11;;;;;;;4.20;2.20;;;22.80;64.10;;;;;;4938118;29;20439;-68
2022/06/21 11:28:57;;;;;;;3.57;2.53;;;22.80;64.10;;;;;;4937804;29;20435;-68
2022/06/21 11:31:40;;;;;;;4.23;2.40;;;22.90;64.20;;;;;;4937538;29;20439;-68
2022/06/21 11:34:28;;;;;;;4.50;2.20;;;22.90;64.20;;;;;;4954743;29;20414;-68
2022/06/21 11:37:15;;;;;;;6.00;2.83;;;22.90;64.10;;;;;;4937894;29;20437;-68
2022/06/21 11:39:53;;;;;;;4.90;2.57;;;22.90;64.10;;;;;;4955085;29;20978;-68
2022/06/21 11:42:26;;;;;;;6.07;2.43;;;22.90;64.10;;;;;;4937657;29;20847;-67
2022/06/21 11:45:21;;;;;;;5.33;2.50;;;23.00;64.20;;;;;;4937729;29;20434;-67
2022/06/21 11:48:21;;;;;;;6.10;2.30;;;23.00;64.20;;;;;;4938170;29;20482;-68
2022/06/21 11:50:56;;;;;;;3.97;2.83;;;23.00;64.10;;;;;;4957619;29;20407;-68
2022/06/21 11:53:59;;;;;;;4.67;2.70;;;23.00;64.10;;;;;;4941880;29;20457;-68
2022/06/21 11:56:57;;;;;;;5.07;2.50;;;23.00;64.10;;;;;;4958269;29;20832;-68
2022/06/21 11:59:51;;;;;;;4.73;2.20;;;23.00;64.10;;;;;;4925554;29;20793;-68
2022/06/21 12:02:34;;;;;;;2.80;2.20;;;23.10;64.20;;;;;;4941082;29;21021;-68
2022/06/21 12:05:16;;;;;;;5.47;2.53;;;23.00;64.20;;;;;;4958154;29;20447;-68
2022/06/21 12:08:02;;;;;;;3.40;2.20;;;23.10;64.20;;;;;;4958039;29;20454;-68
2022/06/21 12:10:47;;;;;;;4.37;2.60;;;23.10;64.20;;;;;;4941032;29;20968;-68
2022/06/21 12:13:51;;;;;;;2.63;2.40;;;23.10;64.10;;;;;;4958044;29;20462;-67
2022/06/21 12:16:35;;;;;;;3.63;2.60;;;23.10;64.00;;;;;;4957899;29;20474;-68
2022/06/21 12:19:08;;;;;;;4.47;2.53;;;23.20;64.10;;;;;;4958002;29;20395;-68
2022/06/21 12:22:02;;;;;;;3.50;2.50;;;23.20;64.10;;;;;;4940807;29;20462;-68
2022/06/21 12:24:30;;;;;;;2.80;2.60;;;23.20;64.10;;;;;;4924946;29;20501;-68
2022/06/21 12:26:56;;;;;;;2.83;2.40;;;23.20;64.10;;;;;;4940638;29;20983;-68
2022/06/21 12:29:25;;;;;;;4.53;2.50;;;23.30;64.10;;;;;;4924947;29;20976;-68
2022/06/21 12:31:57;;;;;;;2.93;2.27;;;23.30;64.00;;;;;;4940605;29;20451;-68
2022/06/21 12:34:29;;;;;;;3.13;2.83;;;23.30;64.00;;;;;;4957498;29;20924;-68
2022/06/21 12:37:17;;;;;;;2.83;2.53;;;23.40;64.00;;;;;;4957618;29;20494;-68
2022/06/21 12:40:06;;;;;;;3.27;2.97;;;23.40;63.80;;;;;;4924790;29;20462;-68
2022/06/21 12:42:44;;;;;;;5.53;2.40;;;23.40;63.70;;;;;;4939929;29;20451;-68
2022/06/21 12:45:18;;;;;;;3.13;2.60;;;23.50;63.90;;;;;;4957420;29;20439;-68
2022/06/21 12:48:05;;;;;;;2.93;2.60;;;23.50;63.80;;;;;;4940364;29;20960;-68
2022/06/21 12:51:10;;;;;;;5.30;3.07;;;23.50;63.60;;;;;;4940424;29;20594;-68
2022/06/21 12:53:52;;;;;;;2.60;2.40;;;23.60;63.40;;;;;;4935703;29;20469;-68
2022/06/21 12:56:26;;;;;;;3.30;2.77;;;23.60;63.40;;;;;;4940000;29;20442;-68
2022/06/21 12:59:21;;;;;;;2.63;2.30;;;23.60;63.20;;;;;;4940181;29;20437;-68
2022/06/21 13:02:01;;;;;;;2.60;2.40;;;23.70;63.10;;;;;;4940266;29;20453;-68
2022/06/21 13:04:46;;;;;;;5.03;2.40;;;23.70;63.10;;;;;;4940146;29;20411;-68
2022/06/21 13:07:35;;;;;;;3.43;2.40;;;23.70;63.00;;;;;;4956979;29;20447;-68
2022/06/21 13:10:19;;;;;;;3.43;2.57;;;23.70;63.00;;;;;;4956963;29;20960;-68
2022/06/21 13:13:11;;;;;;;3.07;2.43;;;23.80;63.00;;;;;;4939891;29;20545;-68
2022/06/21 13:16:01;;;;;;;3.43;2.33;;;23.80;63.00;;;;;;4956879;29;20829;-68
2022/06/21 13:19:06;;;;;;;3.50;2.60;;;23.80;62.90;;;;;;4939778;29;20849;-68
2022/06/21 13:21:50;;;;;;;3.10;2.30;;;23.90;63.00;;;;;;4943263;29;20438;-68
2022/06/21 13:24:28;;;;;;;2.53;2.33;;;23.90;62.90;;;;;;4939779;29;20422;-68
2022/06/21 13:27:15;;;;;;;2.50;2.30;;;23.90;62.90;;;;;;4956586;29;20481;-68
2022/06/21 13:29:57;;;;;;;3.00;2.67;;;23.90;62.80;;;;;;4923844;29;20578;-68
2022/06/21 13:32:48;;;;;;;5.53;2.83;;;24.00;63.00;;;;;;4956484;29;20439;-68
2022/06/21 13:35:32;;;;;;;4.10;2.70;;;24.00;62.90;;;;;;4969568;23;20489;-69
2022/06/21 13:38:30;;;;;;;3.03;2.73;;;24.10;62.90;;;;;;4974543;28;20411;-69
2022/06/21 13:41:02;;;;;;;3.60;3.10;;;24.10;62.90;;;;;;4927078;28;20962;-67
2022/06/21 13:43:45;;;;;;;2.53;2.33;;;24.10;62.90;;;;;;4975711;28;20896;-69
2022/06/21 13:46:17;;;;;;;3.67;2.60;;;24.10;62.80;;;;;;4958202;28;20398;-68
2022/06/21 13:48:52;;;;;;;2.67;2.47;;;24.10;62.80;;;;;;4958485;28;20414;-69
2022/06/21 13:51:27;;;;;;;2.50;2.30;;;24.20;62.80;;;;;;4975503;28;20434;-69
2022/06/21 13:54:24;;;;;;;4.70;2.20;;;24.20;62.70;;;;;;4958284;28;20847;-67
2022/06/21 13:57:07;;;;;;;4.10;2.50;;;24.30;62.80;;;;;;4958232;28;20468;-69
2022/06/21 13:59:41;;;;;;;2.60;2.20;;;24.30;62.70;;;;;;4942632;28;20450;-69